sensor_id;sensor_type;location;lat;lon;timestamp;P1;durP1;ratioP1;P2;durP2;ratioP2
20306;SDS011;10312;52.434;13.206;2023-05-07T11:37:20;1.98;;;1.20;;
20306;SDS011;10312;52.434;13.206;2023-05-07T11:40:02;2.40;;;1.23;;
20306;SDS011;10312;52.434;13.206;2023-05-07T12:17:05;30.75;;;2.92;;
20306;SDS011;10312;52.434;13.206;2023-05-07T12:19:34;7.10;;;1.20;;
20306;SDS011;10312;52.434;13.206;2023-05-07T12:22:05;3.53;;;1.20;;
20306;SDS011;10312;52.434;13.206;2023-05-07T12:24:47;2.78;;;1.20;;
20306;SDS011;10312;52.434;13.206;2023-05-07T12:27:15;2.72;;;1.20;;
20306;SDS011;10312;52.434;13.206;2023-05-07T12:29:49;2.60;;;1.45;;
20306;SDS011;10312;52.434;13.206;2023-05-07T12:32:18;1.88;;;1.10;;
20306;SDS011;10312;52.434;13.206;2023-05-07T12:34:46;2.50;;;1.13;;
20306;SDS011;10312;52.434;13.206;2023-05-07T12:37:22;3.38;;;1.30;;
20306;SDS011;10312;52.434;13.206;2023-05-07T12:39:50;1.73;;;1.00;;
20306;SDS011;10312;52.434;13.206;2023-05-07T12:42:35;1.77;;;1.10;;
20306;SDS011;10312;52.434;13.206;2023-05-07T12:45:12;3.05;;;1.42;;
20306;SDS011;10312;52.434;13.206;2023-05-07T12:47:44;2.13;;;1.13;;
20306;SDS011;10312;52.434;13.206;2023-05-07T12:50:15;2.33;;;0.90;;
20306;SDS011;10312;52.434;13.206;2023-05-07T12:52:45;3.45;;;1.00;;
20306;SDS011;10312;52.434;13.206;2023-05-07T12:55:14;1.35;;;1.08;;
20306;SDS011;10312;52.434;13.206;2023-05-07T12:57:42;2.05;;;1.20;;
20306;SDS011;10312;52.434;13.206;2023-05-07T13:00:14;2.55;;;1.08;;
20306;SDS011;10312;52.434;13.206;2023-05-07T13:02:42;3.80;;;1.10;;
20306;SDS011;10312;52.434;13.206;2023-05-07T13:05:11;2.17;;;1.05;;
20306;SDS011;10312;52.434;13.206;2023-05-07T13:07:38;3.50;;;1.15;;
20306;SDS011;10312;52.434;13.206;2023-05-07T13:10:05;2.95;;;1.00;;
20306;SDS011;10312;52.434;13.206;2023-05-07T13:12:33;2.10;;;1.30;;
20306;SDS011;10312;52.434;13.206;2023-05-07T13:14:59;1.13;;;1.00;;
20306;SDS011;10312;52.434;13.206;2023-05-07T13:17:26;1.63;;;1.13;;
20306;SDS011;10312;52.434;13.206;2023-05-07T13:19:53;2.78;;;1.27;;
20306;SDS011;10312;52.434;13.206;2023-05-07T13:22:20;4.72;;;1.23;;
20306;SDS011;10312;52.434;13.206;2023-05-07T13:24:47;2.80;;;1.40;;
20306;SDS011;10312;52.434;13.206;2023-05-07T13:27:14;3.03;;;1.50;;
20306;SDS011;10312;52.434;13.206;2023-05-07T13:29:41;2.47;;;1.50;;
20306;SDS011;10312;52.434;13.206;2023-05-07T13:32:08;2.45;;;1.50;;
20306;SDS011;10312;52.434;13.206;2023-05-07T13:34:38;3.33;;;1.25;;
20306;SDS011;10312;52.434;13.206;2023-05-07T13:37:06;3.08;;;1.30;;
20306;SDS011;10312;52.434;13.206;2023-05-07T13:39:36;1.52;;;1.00;;
20306;SDS011;10312;52.434;13.206;2023-05-07T13:42:03;5.25;;;1.50;;
20306;SDS011;10312;52.434;13.206;2023-05-07T13:44:30;2.08;;;1.20;;
20306;SDS011;10312;52.434;13.206;2023-05-07T13:46:57;1.50;;;1.20;;
20306;SDS011;10312;52.434;13.206;2023-05-07T13:49:24;1.15;;;1.00;;
20306;SDS011;10312;52.434;13.206;2023-05-07T13:51:51;2.10;;;1.08;;
20306;SDS011;10312;52.434;13.206;2023-05-07T13:54:18;1.75;;;1.10;;
20306;SDS011;10312;52.434;13.206;2023-05-07T13:56:45;1.70;;;1.23;;
20306;SDS011;10312;52.434;13.206;2023-05-07T13:59:12;1.85;;;1.10;;
20306;SDS011;10312;52.434;13.206;2023-05-07T14:01:40;2.60;;;1.20;;
20306;SDS011;10312;52.434;13.206;2023-05-07T14:04:07;2.42;;;1.20;;
20306;SDS011;10312;52.434;13.206;2023-05-07T14:06:34;3.90;;;1.42;;
20306;SDS011;10312;52.434;13.206;2023-05-07T14:09:02;2.05;;;1.20;;
20306;SDS011;10312;52.434;13.206;2023-05-07T14:11:29;3.38;;;1.23;;
20306;SDS011;10312;52.434;13.206;2023-05-07T14:13:57;2.78;;;1.50;;
20306;SDS011;10312;52.434;13.206;2023-05-07T14:16:24;1.88;;;1.17;;
20306;SDS011;10312;52.434;13.206;2023-05-07T14:18:51;2.80;;;1.40;;
20306;SDS011;10312;52.434;13.206;2023-05-07T14:21:23;1.90;;;1.20;;
20306;SDS011;10312;52.434;13.206;2023-05-07T14:23:50;1.58;;;1.25;;
20306;SDS011;10312;52.434;13.206;2023-05-07T14:26:17;4.25;;;1.58;;
20306;SDS011;10312;52.434;13.206;2023-05-07T14:28:47;1.80;;;1.20;;
20306;SDS011;10312;52.434;13.206;2023-05-07T14:31:14;1.40;;;1.02;;
20306;SDS011;10312;52.434;13.206;2023-05-07T14:33:41;1.30;;;1.00;;
20306;SDS011;10312;52.434;13.206;2023-05-07T14:36:08;1.63;;;1.17;;
20306;SDS011;10312;52.434;13.206;2023-05-07T14:38:35;1.73;;;1.17;;
20306;SDS011;10312;52.434;13.206;2023-05-07T14:41:02;2.92;;;1.23;;
20306;SDS011;10312;52.434;13.206;2023-05-07T14:43:29;2.25;;;1.25;;
20306;SDS011;10312;52.434;13.206;2023-05-07T14:45:56;3.35;;;1.45;;
20306;SDS011;10312;52.434;13.206;2023-05-07T14:48:23;1.88;;;1.10;;
20306;SDS011;10312;52.434;13.206;2023-05-07T14:50:49;5.47;;;1.55;;
20306;SDS011;10312;52.434;13.206;2023-05-07T14:53:16;3.17;;;1.23;;
20306;SDS011;10312;52.434;13.206;2023-05-07T14:55:43;1.40;;;1.08;;
20306;SDS011;10312;52.434;13.206;2023-05-07T14:58:10;4.13;;;1.45;;
20306;SDS011;10312;52.434;13.206;2023-05-07T15:00:37;1.48;;;1.00;;
20306;SDS011;10312;52.434;13.206;2023-05-07T15:03:04;2.50;;;1.23;;
20306;SDS011;10312;52.434;13.206;2023-05-07T15:05:33;2.50;;;1.40;;
20306;SDS011;10312;52.434;13.206;2023-05-07T15:08:00;1.83;;;1.30;;
20306;SDS011;10312;52.434;13.206;2023-05-07T15:10:27;1.70;;;1.30;;
20306;SDS011;10312;52.434;13.206;2023-05-07T15:12:54;1.80;;;1.25;;
20306;SDS011;10312;52.434;13.206;2023-05-07T15:15:21;3.25;;;1.30;;
20306;SDS011;10312;52.434;13.206;2023-05-07T15:17:48;2.13;;;1.48;;
20306;SDS011;10312;52.434;13.206;2023-05-07T15:20:15;3.28;;;1.23;;
20306;SDS011;10312;52.434;13.206;2023-05-07T15:22:44;1.92;;;1.35;;
20306;SDS011;10312;52.434;13.206;2023-05-07T15:25:10;5.78;;;1.88;;
20306;SDS011;10312;52.434;13.206;2023-05-07T15:27:38;3.10;;;1.50;;
20306;SDS011;10312;52.434;13.206;2023-05-07T15:30:05;2.05;;;1.20;;
20306;SDS011;10312;52.434;13.206;2023-05-07T15:32:33;4.30;;;1.50;;
20306;SDS011;10312;52.434;13.206;2023-05-07T15:35:00;2.92;;;1.55;;
20306;SDS011;10312;52.434;13.206;2023-05-07T15:37:27;4.20;;;1.48;;
20306;SDS011;10312;52.434;13.206;2023-05-07T15:39:54;1.83;;;1.50;;
20306;SDS011;10312;52.434;13.206;2023-05-07T15:42:21;3.90;;;1.20;;
20306;SDS011;10312;52.434;13.206;2023-05-07T15:44:48;4.03;;;1.40;;
20306;SDS011;10312;52.434;13.206;2023-05-07T15:47:15;2.15;;;1.30;;
20306;SDS011;10312;52.434;13.206;2023-05-07T15:49:42;3.40;;;1.25;;
20306;SDS011;10312;52.434;13.206;2023-05-07T15:52:08;2.60;;;1.40;;
20306;SDS011;10312;52.434;13.206;2023-05-07T15:54:40;1.92;;;1.30;;
20306;SDS011;10312;52.434;13.206;2023-05-07T15:57:07;2.65;;;1.30;;
20306;SDS011;10312;52.434;13.206;2023-05-07T15:59:34;1.58;;;1.10;;
20306;SDS011;10312;52.434;13.206;2023-05-07T16:02:01;2.58;;;1.42;;
20306;SDS011;10312;52.434;13.206;2023-05-07T16:04:29;2.25;;;1.20;;
20306;SDS011;10312;52.434;13.206;2023-05-07T16:06:57;4.80;;;1.60;;
20306;SDS011;10312;52.434;13.206;2023-05-07T16:09:24;2.17;;;1.38;;
20306;SDS011;10312;52.434;13.206;2023-05-07T16:11:52;2.22;;;1.30;;
20306;SDS011;10312;52.434;13.206;2023-05-07T16:14:19;1.88;;;1.20;;
20306;SDS011;10312;52.434;13.206;2023-05-07T16:16:49;2.88;;;1.40;;
20306;SDS011;10312;52.434;13.206;2023-05-07T16:19:16;2.75;;;1.45;;
20306;SDS011;10312;52.434;13.206;2023-05-07T16:21:43;4.03;;;1.33;;
20306;SDS011;10312;52.434;13.206;2023-05-07T16:24:09;4.75;;;1.33;;
20306;SDS011;10312;52.434;13.206;2023-05-07T16:26:36;1.77;;;1.33;;
20306;SDS011;10312;52.434;13.206;2023-05-07T16:29:03;3.30;;;1.30;;
20306;SDS011;10312;52.434;13.206;2023-05-07T16:31:31;1.40;;;1.10;;
20306;SDS011;10312;52.434;13.206;2023-05-07T16:33:59;2.10;;;1.20;;
20306;SDS011;10312;52.434;13.206;2023-05-07T16:36:26;3.15;;;1.40;;
20306;SDS011;10312;52.434;13.206;2023-05-07T16:38:54;2.88;;;1.58;;
20306;SDS011;10312;52.434;13.206;2023-05-07T16:41:21;1.77;;;1.30;;
20306;SDS011;10312;52.434;13.206;2023-05-07T16:43:48;4.95;;;1.40;;
20306;SDS011;10312;52.434;13.206;2023-05-07T16:46:16;1.80;;;1.35;;
20306;SDS011;10312;52.434;13.206;2023-05-07T16:48:43;2.38;;;1.45;;
20306;SDS011;10312;52.434;13.206;2023-05-07T16:51:10;2.17;;;1.27;;
20306;SDS011;10312;52.434;13.206;2023-05-07T16:53:37;2.28;;;1.55;;
20306;SDS011;10312;52.434;13.206;2023-05-07T16:56:04;2.90;;;1.65;;
20306;SDS011;10312;52.434;13.206;2023-05-07T16:58:31;1.83;;;1.10;;
20306;SDS011;10312;52.434;13.206;2023-05-07T17:00:59;4.13;;;1.20;;
20306;SDS011;10312;52.434;13.206;2023-05-07T17:03:28;3.42;;;1.05;;
20306;SDS011;10312;52.434;13.206;2023-05-07T17:05:55;2.53;;;1.27;;
20306;SDS011;10312;52.434;13.206;2023-05-07T17:08:22;2.25;;;1.48;;
20306;SDS011;10312;52.434;13.206;2023-05-07T17:10:48;3.83;;;1.60;;
20306;SDS011;10312;52.434;13.206;2023-05-07T17:13:15;1.55;;;1.13;;
20306;SDS011;10312;52.434;13.206;2023-05-07T17:15:42;1.83;;;1.20;;
20306;SDS011;10312;52.434;13.206;2023-05-07T17:18:12;2.08;;;1.27;;
20306;SDS011;10312;52.434;13.206;2023-05-07T17:20:39;2.50;;;1.38;;
20306;SDS011;10312;52.434;13.206;2023-05-07T17:23:06;1.10;;;0.90;;
20306;SDS011;10312;52.434;13.206;2023-05-07T17:25:33;2.03;;;1.40;;
20306;SDS011;10312;52.434;13.206;2023-05-07T17:28:01;1.63;;;1.10;;
20306;SDS011;10312;52.434;13.206;2023-05-07T17:30:28;2.58;;;1.15;;
20306;SDS011;10312;52.434;13.206;2023-05-07T17:32:55;2.33;;;1.27;;
20306;SDS011;10312;52.434;13.206;2023-05-07T17:35:34;2.88;;;1.15;;
20306;SDS011;10312;52.434;13.206;2023-05-07T17:38:01;3.30;;;1.10;;
20306;SDS011;10312;52.434;13.206;2023-05-07T17:40:29;2.13;;;1.20;;
20306;SDS011;10312;52.434;13.206;2023-05-07T17:42:56;2.28;;;1.20;;
20306;SDS011;10312;52.434;13.206;2023-05-07T17:45:24;1.60;;;1.13;;
20306;SDS011;10312;52.434;13.206;2023-05-07T17:47:51;2.60;;;1.25;;
20306;SDS011;10312;52.434;13.206;2023-05-07T17:50:18;2.85;;;1.60;;
20306;SDS011;10312;52.434;13.206;2023-05-07T17:52:47;1.92;;;1.30;;
20306;SDS011;10312;52.434;13.206;2023-05-07T17:55:14;2.22;;;1.15;;
20306;SDS011;10312;52.434;13.206;2023-05-07T17:57:42;2.22;;;1.20;;
20306;SDS011;10312;52.434;13.206;2023-05-07T18:00:09;2.22;;;1.40;;
20306;SDS011;10312;52.434;13.206;2023-05-07T18:02:36;1.77;;;1.10;;
20306;SDS011;10312;52.434;13.206;2023-05-07T18:05:04;2.13;;;1.20;;
20306;SDS011;10312;52.434;13.206;2023-05-07T18:07:31;3.20;;;1.38;;
20306;SDS011;10312;52.434;13.206;2023-05-07T18:09:58;2.08;;;1.30;;
20306;SDS011;10312;52.434;13.206;2023-05-07T18:12:25;1.88;;;1.35;;
20306;SDS011;10312;52.434;13.206;2023-05-07T18:14:53;2.63;;;1.50;;
20306;SDS011;10312;52.434;13.206;2023-05-07T18:17:19;1.80;;;1.20;;
20306;SDS011;10312;52.434;13.206;2023-05-07T18:19:49;2.05;;;1.50;;
20306;SDS011;10312;52.434;13.206;2023-05-07T18:22:20;1.70;;;1.30;;
20306;SDS011;10312;52.434;13.206;2023-05-07T18:24:46;2.13;;;1.38;;
20306;SDS011;10312;52.434;13.206;2023-05-07T18:27:13;2.38;;;1.50;;
20306;SDS011;10312;52.434;13.206;2023-05-07T18:29:40;1.88;;;1.38;;
20306;SDS011;10312;52.434;13.206;2023-05-07T18:32:07;2.35;;;1.38;;
20306;SDS011;10312;52.434;13.206;2023-05-07T18:34:34;2.40;;;1.40;;
20306;SDS011;10312;52.434;13.206;2023-05-07T18:37:01;1.92;;;1.30;;
20306;SDS011;10312;52.434;13.206;2023-05-07T18:39:28;2.45;;;1.67;;
20306;SDS011;10312;52.434;13.206;2023-05-07T18:41:56;5.80;;;1.80;;
20306;SDS011;10312;52.434;13.206;2023-05-07T18:44:24;3.80;;;1.42;;
20306;SDS011;10312;52.434;13.206;2023-05-07T18:46:51;2.10;;;1.25;;
20306;SDS011;10312;52.434;13.206;2023-05-07T18:49:17;2.05;;;1.40;;
20306;SDS011;10312;52.434;13.206;2023-05-07T18:51:50;2.03;;;1.35;;
20306;SDS011;10312;52.434;13.206;2023-05-07T18:54:18;5.53;;;1.92;;
20306;SDS011;10312;52.434;13.206;2023-05-07T18:56:45;3.55;;;1.70;;
20306;SDS011;10312;52.434;13.206;2023-05-07T18:59:12;2.53;;;1.40;;
20306;SDS011;10312;52.434;13.206;2023-05-07T19:01:39;2.90;;;1.77;;
20306;SDS011;10312;52.434;13.206;2023-05-07T19:04:06;2.90;;;1.65;;
20306;SDS011;10312;52.434;13.206;2023-05-07T19:06:33;4.13;;;1.55;;
20306;SDS011;10312;52.434;13.206;2023-05-07T19:09:00;3.25;;;2.03;;
20306;SDS011;10312;52.434;13.206;2023-05-07T19:11:27;3.28;;;1.95;;
20306;SDS011;10312;52.434;13.206;2023-05-07T19:13:53;4.22;;;1.60;;
20306;SDS011;10312;52.434;13.206;2023-05-07T19:16:20;4.80;;;2.00;;
20306;SDS011;10312;52.434;13.206;2023-05-07T19:18:47;2.75;;;1.55;;
20306;SDS011;10312;52.434;13.206;2023-05-07T19:21:14;2.78;;;1.40;;
20306;SDS011;10312;52.434;13.206;2023-05-07T19:23:41;2.95;;;1.80;;
20306;SDS011;10312;52.434;13.206;2023-05-07T19:26:08;4.28;;;1.83;;
20306;SDS011;10312;52.434;13.206;2023-05-07T19:28:39;2.42;;;1.70;;
20306;SDS011;10312;52.434;13.206;2023-05-07T19:31:17;4.25;;;1.80;;
20306;SDS011;10312;52.434;13.206;2023-05-07T19:33:45;2.10;;;1.50;;
20306;SDS011;10312;52.434;13.206;2023-05-07T19:36:12;2.22;;;1.58;;
20306;SDS011;10312;52.434;13.206;2023-05-07T19:38:40;2.03;;;1.30;;
20306;SDS011;10312;52.434;13.206;2023-05-07T19:41:07;3.05;;;1.70;;
20306;SDS011;10312;52.434;13.206;2023-05-07T19:43:34;2.67;;;1.75;;
20306;SDS011;10312;52.434;13.206;2023-05-07T19:46:04;2.03;;;1.50;;
20306;SDS011;10312;52.434;13.206;2023-05-07T19:48:32;3.75;;;1.85;;
20306;SDS011;10312;52.434;13.206;2023-05-07T19:51:01;2.78;;;1.85;;
20306;SDS011;10312;52.434;13.206;2023-05-07T19:53:28;2.28;;;1.50;;
20306;SDS011;10312;52.434;13.206;2023-05-07T19:56:02;1.98;;;1.70;;
20306;SDS011;10312;52.434;13.206;2023-05-07T19:58:30;4.28;;;2.33;;
20306;SDS011;10312;52.434;13.206;2023-05-07T20:00:57;4.20;;;1.88;;
20306;SDS011;10312;52.434;13.206;2023-05-07T20:03:24;3.50;;;2.20;;
20306;SDS011;10312;52.434;13.206;2023-05-07T20:05:51;3.75;;;1.92;;
20306;SDS011;10312;52.434;13.206;2023-05-07T20:08:18;2.90;;;2.05;;
20306;SDS011;10312;52.434;13.206;2023-05-07T20:10:45;3.50;;;2.10;;
20306;SDS011;10312;52.434;13.206;2023-05-07T20:13:12;3.33;;;2.30;;
20306;SDS011;10312;52.434;13.206;2023-05-07T20:15:38;3.17;;;2.10;;
20306;SDS011;10312;52.434;13.206;2023-05-07T20:18:06;3.22;;;2.17;;
20306;SDS011;10312;52.434;13.206;2023-05-07T20:20:33;5.88;;;3.03;;
20306;SDS011;10312;52.434;13.206;2023-05-07T20:23:02;5.50;;;2.63;;
20306;SDS011;10312;52.434;13.206;2023-05-07T20:25:29;4.30;;;3.00;;
20306;SDS011;10312;52.434;13.206;2023-05-07T20:27:56;4.28;;;2.63;;
20306;SDS011;10312;52.434;13.206;2023-05-07T20:30:23;3.25;;;2.25;;
20306;SDS011;10312;52.434;13.206;2023-05-07T20:32:50;5.18;;;2.25;;
20306;SDS011;10312;52.434;13.206;2023-05-07T20:35:17;2.75;;;2.35;;
20306;SDS011;10312;52.434;13.206;2023-05-07T20:37:44;3.58;;;2.60;;
20306;SDS011;10312;52.434;13.206;2023-05-07T20:40:10;5.75;;;2.40;;
20306;SDS011;10312;52.434;13.206;2023-05-07T20:42:38;5.22;;;2.60;;
20306;SDS011;10312;52.434;13.206;2023-05-07T20:45:05;2.78;;;2.17;;
20306;SDS011;10312;52.434;13.206;2023-05-07T20:47:32;5.20;;;2.60;;
20306;SDS011;10312;52.434;13.206;2023-05-07T20:49:59;2.90;;;2.40;;
20306;SDS011;10312;52.434;13.206;2023-05-07T20:52:26;4.88;;;2.60;;
20306;SDS011;10312;52.434;13.206;2023-05-07T20:54:53;3.55;;;2.60;;
20306;SDS011;10312;52.434;13.206;2023-05-07T20:57:19;3.20;;;2.50;;
20306;SDS011;10312;52.434;13.206;2023-05-07T20:59:46;3.05;;;2.30;;
20306;SDS011;10312;52.434;13.206;2023-05-07T21:02:13;4.20;;;2.90;;
20306;SDS011;10312;52.434;13.206;2023-05-07T21:04:40;3.72;;;2.22;;
20306;SDS011;10312;52.434;13.206;2023-05-07T21:07:07;3.55;;;2.67;;
20306;SDS011;10312;52.434;13.206;2023-05-07T21:09:34;3.53;;;2.28;;
20306;SDS011;10312;52.434;13.206;2023-05-07T21:12:01;3.13;;;2.40;;
20306;SDS011;10312;52.434;13.206;2023-05-07T21:14:28;3.58;;;2.58;;
20306;SDS011;10312;52.434;13.206;2023-05-07T21:16:55;3.85;;;2.60;;
20306;SDS011;10312;52.434;13.206;2023-05-07T21:19:22;4.97;;;2.50;;
20306;SDS011;10312;52.434;13.206;2023-05-07T21:21:49;4.00;;;2.70;;
20306;SDS011;10312;52.434;13.206;2023-05-07T21:24:16;4.28;;;3.10;;
20306;SDS011;10312;52.434;13.206;2023-05-07T21:26:42;3.55;;;2.60;;
20306;SDS011;10312;52.434;13.206;2023-05-07T21:29:09;4.72;;;2.80;;
20306;SDS011;10312;52.434;13.206;2023-05-07T21:31:36;4.97;;;2.72;;
20306;SDS011;10312;52.434;13.206;2023-05-07T21:34:03;4.63;;;2.80;;
20306;SDS011;10312;52.434;13.206;2023-05-07T21:36:36;3.60;;;2.80;;
20306;SDS011;10312;52.434;13.206;2023-05-07T21:39:03;3.28;;;2.65;;
20306;SDS011;10312;52.434;13.206;2023-05-07T21:41:30;4.22;;;2.80;;
20306;SDS011;10312;52.434;13.206;2023-05-07T21:43:56;4.50;;;2.70;;
20306;SDS011;10312;52.434;13.206;2023-05-07T21:46:23;4.38;;;2.80;;
20306;SDS011;10312;52.434;13.206;2023-05-07T21:48:50;3.80;;;3.00;;
20306;SDS011;10312;52.434;13.206;2023-05-07T21:51:17;4.15;;;2.95;;
20306;SDS011;10312;52.434;13.206;2023-05-07T21:53:44;3.78;;;2.63;;
20306;SDS011;10312;52.434;13.206;2023-05-07T21:56:10;5.15;;;3.03;;
20306;SDS011;10312;52.434;13.206;2023-05-07T21:58:37;3.85;;;2.67;;
20306;SDS011;10312;52.434;13.206;2023-05-07T22:01:04;6.40;;;2.95;;
20306;SDS011;10312;52.434;13.206;2023-05-07T22:03:31;5.40;;;3.00;;
20306;SDS011;10312;52.434;13.206;2023-05-07T22:05:58;4.63;;;2.85;;
20306;SDS011;10312;52.434;13.206;2023-05-07T22:08:24;5.45;;;3.00;;
20306;SDS011;10312;52.434;13.206;2023-05-07T22:10:54;4.35;;;2.78;;
20306;SDS011;10312;52.434;13.206;2023-05-07T22:13:21;3.90;;;2.70;;
20306;SDS011;10312;52.434;13.206;2023-05-07T22:15:48;5.30;;;3.00;;
20306;SDS011;10312;52.434;13.206;2023-05-07T22:18:23;3.95;;;3.00;;
20306;SDS011;10312;52.434;13.206;2023-05-07T22:20:50;4.53;;;3.10;;
20306;SDS011;10312;52.434;13.206;2023-05-07T22:23:17;8.38;;;3.40;;
20306;SDS011;10312;52.434;13.206;2023-05-07T22:25:47;4.30;;;3.30;;
20306;SDS011;10312;52.434;13.206;2023-05-07T22:28:14;4.78;;;3.10;;
20306;SDS011;10312;52.434;13.206;2023-05-07T22:30:41;6.22;;;3.30;;
20306;SDS011;10312;52.434;13.206;2023-05-07T22:33:08;4.80;;;3.30;;
20306;SDS011;10312;52.434;13.206;2023-05-07T22:35:35;3.72;;;2.72;;
20306;SDS011;10312;52.434;13.206;2023-05-07T22:38:02;4.65;;;3.47;;
20306;SDS011;10312;52.434;13.206;2023-05-07T22:40:28;5.70;;;3.10;;
20306;SDS011;10312;52.434;13.206;2023-05-07T22:42:55;5.45;;;3.28;;
20306;SDS011;10312;52.434;13.206;2023-05-07T22:45:22;3.90;;;3.10;;
20306;SDS011;10312;52.434;13.206;2023-05-07T22:47:49;6.65;;;3.70;;
20306;SDS011;10312;52.434;13.206;2023-05-07T22:50:16;8.48;;;3.50;;
20306;SDS011;10312;52.434;13.206;2023-05-07T22:52:42;5.05;;;3.50;;
20306;SDS011;10312;52.434;13.206;2023-05-07T22:55:09;5.38;;;3.40;;
20306;SDS011;10312;52.434;13.206;2023-05-07T22:57:36;4.78;;;3.42;;
20306;SDS011;10312;52.434;13.206;2023-05-07T23:00:03;4.90;;;3.63;;
20306;SDS011;10312;52.434;13.206;2023-05-07T23:02:31;4.90;;;3.63;;
20306;SDS011;10312;52.434;13.206;2023-05-07T23:04:58;5.00;;;3.42;;
20306;SDS011;10312;52.434;13.206;2023-05-07T23:07:26;4.97;;;3.33;;
20306;SDS011;10312;52.434;13.206;2023-05-07T23:09:53;5.57;;;3.35;;
20306;SDS011;10312;52.434;13.206;2023-05-07T23:12:20;4.28;;;3.33;;
20306;SDS011;10312;52.434;13.206;2023-05-07T23:14:46;4.18;;;3.00;;
20306;SDS011;10312;52.434;13.206;2023-05-07T23:17:13;4.55;;;3.42;;
20306;SDS011;10312;52.434;13.206;2023-05-07T23:19:40;4.28;;;3.25;;
20306;SDS011;10312;52.434;13.206;2023-05-07T23:22:07;6.57;;;3.38;;
20306;SDS011;10312;52.434;13.206;2023-05-07T23:24:35;4.85;;;3.60;;
20306;SDS011;10312;52.434;13.206;2023-05-07T23:27:03;5.18;;;3.60;;
20306;SDS011;10312;52.434;13.206;2023-05-07T23:29:31;4.00;;;3.30;;
20306;SDS011;10312;52.434;13.206;2023-05-07T23:31:58;5.88;;;3.97;;
20306;SDS011;10312;52.434;13.206;2023-05-07T23:34:25;6.35;;;3.88;;
20306;SDS011;10312;52.434;13.206;2023-05-07T23:36:52;6.40;;;3.63;;
20306;SDS011;10312;52.434;13.206;2023-05-07T23:39:19;5.15;;;3.40;;
20306;SDS011;10312;52.434;13.206;2023-05-07T23:41:46;4.35;;;3.53;;
20306;SDS011;10312;52.434;13.206;2023-05-07T23:44:12;6.60;;;3.42;;
20306;SDS011;10312;52.434;13.206;2023-05-07T23:46:42;3.90;;;3.10;;
20306;SDS011;10312;52.434;13.206;2023-05-07T23:49:09;4.53;;;3.60;;
20306;SDS011;10312;52.434;13.206;2023-05-07T23:51:36;5.20;;;3.72;;
20306;SDS011;10312;52.434;13.206;2023-05-07T23:54:03;4.68;;;3.42;;
20306;SDS011;10312;52.434;13.206;2023-05-07T23:56:30;6.30;;;4.32;;
20306;SDS011;10312;52.434;13.206;2023-05-07T23:58:57;6.13;;;3.65;;
